Time;durP1;ratioP1;P1;durP2;ratioP2;P2;SDS_P1;SDS_P2;PMS_P1;PMS_P2;Temp;Humidity;BMP_temperature;BMP_pressure;BME280_temperature;BME280_humidity;BME280_pressure;Samples;Min_cycle;Max_cycle;Signal;HPM_P1;HPM_P2
2022/02/05 00:02:42;;;;;;;5.50;1.92;;;;;;;7.44;62.45;101034.44;5026291;28;20036;-96
2022/02/05 00:05:13;;;;;;;3.55;1.30;;;;;;;7.40;62.46;101029.44;5022467;28;20097;-96
2022/02/05 00:07:45;;;;;;;6.63;1.38;;;;;;;7.41;62.69;101034.59;5021491;28;20021;-96
2022/02/05 00:16:07;;;;;;;6.15;1.92;;;;;;;7.34;61.97;101041.84;5019413;28;20125;-96
2022/02/05 00:40:53;;;;;;;5.47;1.52;;;;;;;7.13;62.51;101054.09;5020855;28;20057;-96
2022/02/05 00:43:18;;;;;;;1.73;0.98;;;;;;;7.21;62.76;101065.97;5030448;28;20021;-96
2022/02/05 00:45:50;;;;;;;8.05;1.13;;;;;;;7.24;62.30;101068.47;5028617;28;20056;-96
2022/02/05 00:48:17;;;;;;;5.95;1.10;;;;;;;7.02;62.47;101064.16;5031241;28;20016;-96
2022/02/05 00:50:51;;;;;;;2.90;1.00;;;;;;;7.06;63.16;101086.59;5037733;28;20030;-96
2022/02/05 00:53:33;;;;;;;3.35;1.10;;;;;;;7.03;62.61;101063.25;5036433;28;20089;-96
2022/02/05 00:58:30;;;;;;;6.35;1.55;;;;;;;7.07;62.84;101067.44;5033540;28;20034;-96
2022/02/05 01:00:56;;;;;;;10.70;1.38;;;;;;;6.99;62.87;101069.53;5035088;28;20033;-96
2022/02/05 01:03:22;;;;;;;8.73;1.42;;;;;;;6.97;62.87;101071.34;5033205;28;20108;-96
2022/02/05 01:05:50;;;;;;;3.63;1.45;;;;;;;6.85;63.07;101066.63;5036724;28;20491;-96
2022/02/05 01:08:16;;;;;;;2.30;1.30;;;;;;;7.05;62.81;101084.94;5035895;28;20021;-96
2022/02/05 01:10:42;;;;;;;8.50;1.27;;;;;;;6.99;62.80;101066.03;5035300;28;20048;-96
2022/02/05 01:13:10;;;;;;;7.53;2.03;;;;;;;6.98;63.06;101080.88;5035003;28;20014;-96
2022/02/05 01:15:40;;;;;;;7.75;1.58;;;;;;;7.21;63.07;101106.00;5035788;28;20093;-96
2022/02/05 01:18:08;;;;;;;5.70;1.40;;;;;;;7.09;62.83;101076.03;5036693;28;20006;-96
2022/02/05 01:23:33;;;;;;;6.57;1.10;;;;;;;7.11;62.90;101095.09;5065516;23;20037;-94
2022/02/05 01:26:08;;;;;;;10.95;1.90;;;;;;;7.15;63.32;101088.84;5017978;28;20003;-94
2022/02/05 01:28:36;;;;;;;7.55;1.60;;;;;;;7.07;63.06;101070.03;5018154;28;20006;-96
2022/02/05 01:31:01;;;;;;;4.53;1.10;;;;;;;7.19;63.55;101071.28;5018247;28;20030;-95
2022/02/05 01:57:19;;;;;;;4.95;1.30;;;;;;;7.14;62.53;101083.66;5333879;23;20058;-96
2022/02/05 02:04:41;;;;;;;6.25;1.90;;;;;;;7.31;62.51;101116.91;5009559;28;20026;-96
2022/02/05 02:05:50;;;;;;;7.70;2.15;;;;;;;7.09;62.54;101099.53;5005655;28;20026;-96
2022/02/05 02:14:08;;;;;;;13.05;2.15;;;;;;;6.98;62.96;101101.75;5012503;28;20039;-96
2022/02/05 02:22:21;;;;;;;5.75;1.77;;;;;;;6.94;62.66;101121.06;5011947;28;20100;-96
2022/02/05 02:32:25;;;;;;;10.82;1.73;;;;;;;6.46;65.24;101122.16;5012187;28;20064;-96
2022/02/05 02:34:55;;;;;;;7.85;2.17;;;;;;;6.72;64.55;101140.22;5011208;28;20022;-96
2022/02/05 02:37:29;;;;;;;11.13;2.85;;;;;;;6.83;64.21;101144.16;4994606;28;20054;-95
2022/02/05 02:40:19;;;;;;;8.65;2.35;;;;;;;6.74;64.60;101127.13;5017045;28;20045;-96
2022/02/05 02:43:12;;;;;;;10.00;2.53;;;;;;;6.83;64.95;101136.31;5016219;28;20038;-96
2022/02/05 02:45:41;;;;;;;15.50;2.50;;;;;;;6.82;64.57;101142.47;5015102;28;20034;-96
2022/02/05 02:48:07;;;;;;;10.65;2.70;;;;;;;6.83;64.61;101141.53;5015449;28;20038;-96
2022/02/05 02:56:24;;;;;;;9.20;3.17;;;;;;;6.77;64.32;101142.63;5006495;28;20472;-96
2022/02/05 02:58:54;;;;;;;8.95;2.55;;;;;;;6.70;64.28;101159.47;5013030;28;20041;-96
2022/02/05 03:01:21;;;;;;;9.02;2.40;;;;;;;6.70;64.28;101157.69;4995787;28;20034;-96
2022/02/05 03:03:48;;;;;;;6.55;2.53;;;;;;;6.44;64.42;101119.59;5009765;28;20038;-96
2022/02/05 03:06:18;;;;;;;8.52;2.08;;;;;;;6.63;65.12;101151.00;5009719;28;20022;-96
2022/02/05 03:08:47;;;;;;;7.45;2.03;;;;;;;6.43;64.47;101127.47;5012065;28;20038;-96
2022/02/05 03:11:45;;;;;;;10.27;2.28;;;;;;;6.53;64.18;101141.84;5015071;28;20022;-96
2022/02/05 03:14:46;;;;;;;11.27;2.15;;;;;;;6.39;65.08;101125.91;5017855;28;20034;-96
2022/02/05 03:17:21;;;;;;;10.35;1.98;;;;;;;6.57;64.54;101113.88;5038971;22;20085;-96
2022/02/05 03:19:48;;;;;;;;;;;;;;;6.70;65.50;101131.59;5012966;28;20026;-96
2022/02/05 03:22:19;;;;;;;5.97;1.80;;;;;;;6.58;65.47;101116.44;5014779;28;19985;-96
2022/02/05 03:24:45;;;;;;;10.95;2.00;;;;;;;6.62;65.49;101115.41;5015069;28;20049;-96
2022/02/05 03:27:12;;;;;;;8.90;2.22;;;;;;;6.58;64.99;101120.81;5016495;28;20018;-96
2022/02/05 03:29:44;;;;;;;11.45;2.55;;;;;;;6.51;65.57;101138.44;5017161;28;20081;-96
2022/02/05 03:32:10;;;;;;;13.07;2.67;;;;;;;6.43;65.26;101138.75;5736592;23;20039;-96
2022/02/05 03:34:37;;;;;;;10.95;1.65;;;;;;;6.50;65.55;101150.66;5013070;28;20031;-96
2022/02/05 03:37:03;;;;;;;4.53;1.55;;;;;;;6.66;65.20;101155.28;5004648;28;20033;-96
2022/02/05 03:39:29;;;;;;;11.63;1.60;;;;;;;6.67;65.45;101147.38;5004135;28;20388;-96
2022/02/05 03:41:56;;;;;;;9.63;1.83;;;;;;;6.65;65.20;101133.53;5013982;28;20030;-96
2022/02/05 03:47:36;;;;;;;13.00;2.17;;;;;;;6.88;65.88;101147.44;5546291;22;20078;-96
2022/02/05 03:50:05;;;;;;;14.77;2.05;;;;;;;6.79;65.13;101124.31;5017931;28;20050;-96
2022/02/05 03:52:30;;;;;;;9.88;1.88;;;;;;;6.89;65.01;101133.44;5019007;28;20033;-96
2022/02/05 03:54:56;;;;;;;6.32;1.80;;;;;;;6.93;64.89;101128.06;5019296;28;20018;-96
2022/02/05 03:57:22;;;;;;;7.07;1.70;;;;;;;7.04;64.71;101165.94;5020363;28;20034;-96
2022/02/05 03:59:49;;;;;;;14.30;1.90;;;;;;;6.91;64.91;101139.47;5018459;28;20061;-96
2022/02/05 04:02:14;;;;;;;7.57;1.90;;;;;;;6.85;64.99;101137.09;5011279;28;20046;-96
2022/02/05 04:07:15;;;;;;;10.25;1.98;;;;;;;6.95;64.22;101152.34;5407061;23;20026;-96
2022/02/05 04:09:41;;;;;;;8.13;1.58;;;;;;;6.81;64.23;101132.91;5019882;28;20070;-96
2022/02/05 04:22:38;;;;;;;12.40;2.00;;;;;;;6.63;65.41;101118.84;5518363;23;20028;-96
2022/02/05 04:25:04;;;;;;;9.45;2.58;;;;;;;6.68;65.13;101120.38;5158398;23;20026;-95
2022/02/05 04:27:29;;;;;;;12.43;1.92;;;;;;;6.74;65.38;101120.13;5019474;28;20006;-96
2022/02/05 04:35:17;;;;;;;6.85;1.70;;;;;;;6.78;65.38;101131.28;5128279;22;20254;-96
2022/02/05 04:37:43;;;;;;;15.90;1.90;;;;;;;6.82;65.21;101121.59;5058833;28;20013;-96
2022/02/05 05:24:39;;;;;;;14.45;1.83;;;;;;;7.24;65.63;101120.69;4986784;28;20051;-96
2022/02/05 05:27:04;;;;;;;10.45;1.58;;;;;;;7.36;65.16;101117.56;4991914;28;20022;-96
2022/02/05 05:29:30;;;;;;;12.13;1.40;;;;;;;7.65;65.03;101136.34;5068529;22;20023;-96
2022/02/05 05:31:55;;;;;;;7.53;1.75;;;;;;;7.35;65.19;101111.47;5008296;28;20142;-96
2022/02/05 05:34:23;;;;;;;9.40;1.63;;;;;;;7.22;65.11;101106.84;5006144;28;20026;-96
2022/02/05 05:36:49;;;;;;;7.22;1.30;;;;;;;7.19;65.38;101106.97;4989651;28;20389;-96
2022/02/05 05:39:15;;;;;;;12.07;1.73;;;;;;;7.39;64.98;101117.44;4991080;28;20023;-96
2022/02/05 05:41:41;;;;;;;9.40;1.35;;;;;;;7.32;65.39;101109.00;4983523;28;20465;-96
2022/02/05 05:47:14;;;;;;;9.70;1.58;;;;;;;7.29;65.13;101119.59;4991714;28;20111;-96
2022/02/05 05:49:57;;;;;;;8.70;1.90;;;;;;;7.51;65.34;101150.88;4995279;28;20031;-96
2022/02/05 05:52:28;;;;;;;11.02;1.83;;;;;;;7.33;64.88;101117.69;4991991;28;20141;-95
2022/02/05 05:54:53;;;;;;;11.10;1.92;;;;;;;7.37;65.17;101102.75;4985629;28;20023;-95
2022/02/05 06:05:20;;;;;;;10.50;2.08;;;;;;;7.26;64.56;101100.59;5344006;23;20054;-96
2022/02/05 06:07:46;;;;;;;19.52;1.83;;;;;;;7.26;64.51;101103.19;5027384;28;20082;-96
2022/02/05 06:10:11;;;;;;;10.10;1.35;;;;;;;7.37;65.20;101132.31;5025081;28;20034;-96
2022/02/05 06:12:37;;;;;;;12.52;1.85;;;;;;;7.24;64.93;101094.56;5015661;28;20015;-96
2022/02/05 06:15:06;;;;;;;9.23;2.17;;;;;;;7.19;64.77;101093.91;5014922;28;20037;-96
2022/02/05 06:53:39;;;;;;;13.32;2.22;;;;;;;7.34;65.49;101081.03;5946782;22;20025;-96
2022/02/05 07:21:58;;;;;;;22.73;1.92;;;;;;;7.73;63.51;101069.72;5656350;23;20030;-95
2022/02/05 07:34:44;;;;;;;7.25;1.15;;;;;;;8.04;63.59;101089.25;5296462;23;20058;-94
2022/02/05 07:37:09;;;;;;;7.13;2.42;;;;;;;7.95;63.63;101098.34;4975408;28;20023;-96
2022/02/05 07:39:44;;;;;;;14.48;1.70;;;;;;;8.05;63.55;101103.16;4977915;28;20058;-95
2022/02/05 07:42:09;;;;;;;7.00;1.38;;;;;;;8.10;63.47;101101.22;4978003;28;20046;-95
2022/02/05 07:44:35;;;;;;;15.40;2.60;;;;;;;7.88;64.03;101107.41;4971510;28;20390;-94
2022/02/05 07:47:01;;;;;;;12.63;1.50;;;;;;;7.74;64.35;101088.88;4981941;28;20066;-95
2022/02/05 07:49:35;;;;;;;5.30;1.55;;;;;;;7.78;64.29;101094.81;4984116;28;20031;-96
2022/02/05 07:52:00;;;;;;;9.88;1.77;;;;;;;7.72;64.61;101098.53;4966589;28;20508;-93
2022/02/05 07:54:26;;;;;;;14.65;1.48;;;;;;;7.69;64.59;101088.25;4980824;28;20058;-92
2022/02/05 07:56:53;;;;;;;9.50;1.67;;;;;;;7.75;64.76;101109.72;4960915;28;20257;-94
2022/02/05 07:59:23;;;;;;;8.63;1.50;;;;;;;7.75;64.85;101111.50;4963329;28;20547;-95
2022/02/05 08:01:48;;;;;;;11.85;1.75;;;;;;;7.71;64.32;101094.25;4973469;28;20194;-95
2022/02/05 08:04:14;;;;;;;7.88;1.23;;;;;;;7.72;64.59;101102.03;4972613;28;20162;-94
2022/02/05 08:06:42;;;;;;;10.45;1.58;;;;;;;7.80;64.49;101106.91;4955862;28;20035;-94
2022/02/05 08:09:19;;;;;;;11.48;1.50;;;;;;;7.75;64.28;101104.50;4964708;28;20115;-95
2022/02/05 08:12:00;;;;;;;12.65;2.17;;;;;;;7.77;64.60;101107.03;4961438;28;20039;-96
2022/02/05 08:14:29;;;;;;;8.50;1.35;;;;;;;7.88;64.45;101104.81;4965796;28;20023;-96
2022/02/05 08:17:15;;;;;;;11.38;1.77;;;;;;;7.88;64.30;101090.88;4992596;28;20046;-96
2022/02/05 08:19:43;;;;;;;8.80;1.80;;;;;;;7.73;64.16;101067.13;4976629;28;20031;-96
2022/02/05 08:22:22;;;;;;;9.68;1.80;;;;;;;8.00;64.06;101092.94;5179208;23;20046;-96
2022/02/05 08:27:23;;;;;;;7.65;1.70;;;;;;;8.16;63.05;101063.44;5129576;23;20057;-96
2022/02/05 08:29:55;;;;;;;9.82;1.42;;;;;;;8.17;62.68;101062.50;5014383;28;20045;-95
2022/02/05 08:34:59;;;;;;;11.13;1.73;;;;;;;8.26;62.76;101081.25;5378747;23;20059;-95
2022/02/05 08:37:26;;;;;;;7.55;1.67;;;;;;;8.04;62.80;101064.88;5250602;23;20046;-96
2022/02/05 08:39:51;;;;;;;14.20;1.77;;;;;;;8.32;62.58;101075.72;5186797;23;20036;-96
2022/02/05 08:42:17;;;;;;;12.80;1.95;;;;;;;8.23;62.85;101076.13;5031363;28;20018;-95
2022/02/05 08:44:43;;;;;;;8.52;1.83;;;;;;;8.21;63.05;101072.75;5036165;28;20038;-94
2022/02/05 08:57:30;;;;;;;11.38;1.63;;;;;;;8.65;62.65;101082.91;5022258;23;20042;-95
2022/02/05 09:00:03;;;;;;;12.45;2.03;;;;;;;8.85;61.97;101058.34;5564470;22;20960;-96
2022/02/05 09:05:41;;;;;;;13.60;2.60;;;;;;;9.15;61.13;101067.34;5456230;23;20066;-96
2022/02/05 09:08:20;;;;;;;12.35;2.25;;;;;;;9.09;61.36;101042.31;5776044;22;21154;-95
2022/02/05 09:10:57;;;;;;;6.40;1.40;;;;;;;9.02;61.03;101039.13;4993068;28;20015;-96
2022/02/05 09:15:57;;;;;;;12.32;1.92;;;;;;;9.04;61.10;101076.56;5645486;23;20058;-96
2022/02/05 09:18:23;;;;;;;12.25;1.63;;;;;;;9.02;61.44;101060.09;5016706;23;20014;-96
2022/02/05 09:20:48;;;;;;;9.48;1.67;;;;;;;9.12;61.30;101060.47;5001182;28;20065;-95
2022/02/05 09:23:14;;;;;;;13.57;1.73;;;;;;;9.45;60.05;101063.09;4997926;28;20022;-96
2022/02/05 09:25:42;;;;;;;13.07;2.10;;;;;;;9.47;60.34;101074.34;5003824;28;20023;-95
2022/02/05 09:46:22;;;;;;;12.52;1.88;;;;;;;9.80;60.10;101022.81;5539843;22;20061;-95
2022/02/05 09:48:50;;;;;;;7.88;1.40;;;;;;;9.98;60.75;101040.16;5003561;28;20090;-96
2022/02/05 09:53:51;;;;;;;9.63;1.40;;;;;;;9.75;61.21;101012.56;5000828;28;20045;-96
2022/02/05 09:56:18;;;;;;;10.38;1.83;;;;;;;9.67;61.08;100992.00;5003327;28;20035;-96
2022/02/05 10:09:12;;;;;;;10.10;1.45;;;;;;;14.99;50.34;100982.59;3412273;23;20113;-96
2022/02/05 10:11:51;;;;;;;8.60;1.75;;;;;;;15.59;48.65;100987.63;4998646;28;20046;-96
2022/02/05 10:14:38;;;;;;;8.07;1.90;;;;;;;16.79;47.57;101004.34;5009535;28;20022;-96
2022/02/05 10:17:05;;;;;;;8.07;1.35;;;;;;;17.33;45.88;100989.13;5536897;23;21471;-96
2022/02/05 10:19:52;;;;;;;10.30;1.23;;;;;;;16.70;45.19;101010.41;5004523;28;20043;-94
2022/02/05 10:22:20;;;;;;;7.07;1.75;;;;;;;17.38;44.88;101014.31;4974494;28;20377;-96
2022/02/05 10:24:50;;;;;;;9.93;1.52;;;;;;;17.64;43.80;101017.31;4977620;28;20085;-96
2022/02/05 10:27:40;;;;;;;11.20;1.50;;;;;;;18.26;43.13;101008.38;4976983;28;20121;-96
2022/02/05 10:30:08;;;;;;;7.60;1.67;;;;;;;18.63;41.84;101009.31;4975305;28;20027;-95
2022/02/05 10:35:53;;;;;;;;;;;;;;;19.17;40.77;101006.13;4999996;28;20523;-96
2022/02/05 10:39:08;;;;;;;5.93;1.10;;;;;;;18.97;41.26;101022.16;5002062;28;20403;-96
2022/02/05 10:44:19;;;;;;;7.88;1.52;;;;;;;17.24;44.10;100994.28;5002033;28;20015;-96
2022/02/05 10:46:53;;;;;;;11.10;1.75;;;;;;;16.90;45.05;101012.22;4983366;28;20034;-96
2022/02/05 10:49:48;;;;;;;8.15;2.03;;;;;;;16.17;46.18;100993.56;4996195;28;20025;-96
2022/02/05 10:52:25;;;;;;;3.63;0.73;;;;;;;16.13;47.16;101008.00;4989756;28;20035;-95
2022/02/05 10:55:11;;;;;;;7.85;1.45;;;;;;;15.67;48.06;100999.28;4998179;28;20130;-93
2022/02/05 11:05:44;;;;;;;9.70;1.27;;;;;;;16.47;47.61;100970.78;5059100;23;20064;-96
2022/02/05 11:11:21;;;;;;;6.30;1.13;;;;;;;17.40;45.16;100991.13;5771128;23;20049;-96
2022/02/05 11:21:29;;;;;;;3.78;0.90;;;;;;;18.14;43.96;100971.28;5045222;28;20052;-96
2022/02/05 11:24:21;;;;;;;6.88;1.25;;;;;;;18.75;42.65;100969.28;5043574;23;20050;-95
2022/02/05 11:26:50;;;;;;;5.88;1.25;;;;;;;18.65;42.38;100973.78;5014593;28;20050;-96
2022/02/05 11:29:28;;;;;;;5.30;1.08;;;;;;;18.09;44.01;100951.41;5014521;28;20030;-96
2022/02/05 11:32:20;;;;;;;9.43;2.63;;;;;;;18.14;44.21;100955.34;5017698;28;20040;-96
2022/02/05 11:35:22;;;;;;;6.72;1.27;;;;;;;18.36;44.15;100930.28;5079739;23;20026;-96
2022/02/05 11:46:13;;;;;;;5.32;1.30;;;;;;;18.85;43.73;100954.16;5170528;23;19922;-96
2022/02/05 11:54:16;;;;;;;10.25;1.70;;;;;;;17.42;46.40;100936.06;5444940;23;20058;-96
2022/02/05 11:59:26;;;;;;;6.57;1.65;;;;;;;17.39;46.22;100944.28;4982560;28;20041;-94
2022/02/05 12:02:16;;;;;;;6.45;1.45;;;;;;;17.41;46.90;100942.34;4974754;28;20076;-96
2022/02/05 12:07:30;;;;;;;8.77;1.40;;;;;;;16.30;48.40;100929.78;5417862;22;20113;-96
2022/02/05 12:12:39;;;;;;;6.85;1.35;;;;;;;16.14;48.98;100919.63;5687081;22;20455;-96
2022/02/05 12:42:02;;;;;;;8.13;1.25;;;;;;;15.41;51.70;100898.16;5059905;23;20038;-95
2022/02/05 12:44:29;;;;;;;6.05;1.30;;;;;;;15.69;51.45;100864.16;5010430;28;20046;-96
2022/02/05 13:07:22;;;;;;;10.50;1.70;;;;;;;15.79;50.88;100840.44;5102843;23;20021;-96
2022/02/05 13:12:38;;;;;;;6.82;1.75;;;;;;;15.17;51.66;100823.44;5092320;23;20034;-96
2022/02/05 13:15:18;;;;;;;6.70;1.23;;;;;;;15.41;52.17;100836.47;5018071;28;20015;-95
2022/02/05 13:34:24;;;;;;;7.53;2.05;;;;;;;15.30;51.19;100818.81;5016182;28;20025;-95
2022/02/05 13:39:54;;;;;;;8.90;1.33;;;;;;;14.62;52.70;100818.09;5007247;28;20057;-96
2022/02/05 13:42:24;;;;;;;5.43;1.38;;;;;;;14.61;52.46;100817.25;4997578;28;20392;-96
2022/02/05 13:45:00;;;;;;;11.68;1.80;;;;;;;14.67;52.41;100811.47;5007389;28;20027;-96
2022/02/05 13:47:30;;;;;;;9.90;2.60;;;;;;;14.81;52.42;100813.03;5009458;28;20046;-96
2022/02/05 13:50:07;;;;;;;7.55;1.80;;;;;;;15.10;51.89;100809.84;4997160;28;20081;-95
2022/02/05 13:52:43;;;;;;;11.32;2.00;;;;;;;15.01;51.84;100798.22;4994064;28;20393;-96
2022/02/05 13:55:18;;;;;;;8.48;1.45;;;;;;;14.47;52.77;100810.38;4986769;28;20030;-96
2022/02/05 13:58:02;;;;;;;10.73;2.05;;;;;;;14.90;52.58;100792.13;4987544;28;20022;-96
2022/02/05 14:00:57;;;;;;;8.18;1.60;;;;;;;14.85;52.37;100780.09;4992075;28;20066;-96
2022/02/05 14:03:38;;;;;;;10.40;1.77;;;;;;;14.76;52.90;100778.19;5003309;28;20104;-96
2022/02/05 14:06:09;;;;;;;9.57;3.20;;;;;;;14.70;52.71;100776.03;5002673;28;20022;-95
2022/02/05 14:08:46;;;;;;;7.35;2.03;;;;;;;14.99;52.51;100760.47;5000894;28;20026;-94
2022/02/05 14:11:13;;;;;;;8.15;1.65;;;;;;;15.02;52.26;100773.44;5000434;28;20030;-95
2022/02/05 14:13:40;;;;;;;7.43;2.15;;;;;;;15.28;51.98;100767.84;5002971;28;20435;-95
2022/02/05 14:16:07;;;;;;;9.00;2.22;;;;;;;15.13;51.88;100750.59;5005952;28;20023;-96
2022/02/05 14:18:56;;;;;;;8.15;1.80;;;;;;;15.25;52.30;100762.81;5009095;28;20027;-96
2022/02/05 14:21:33;;;;;;;14.07;2.08;;;;;;;15.00;52.50;100770.09;5006538;28;20026;-95
2022/02/05 14:23:58;;;;;;;9.52;1.90;;;;;;;15.14;52.47;100744.31;5010737;28;20392;-95
2022/02/05 14:27:09;;;;;;;10.05;2.10;;;;;;;15.00;52.81;100770.09;5009135;28;20006;-96
2022/02/05 14:32:42;;;;;;;10.10;1.90;;;;;;;14.95;53.35;100753.78;4999467;28;20026;-96
2022/02/05 14:35:30;;;;;;;12.23;2.10;;;;;;;15.04;53.10;100753.00;5002608;28;20038;-95
2022/02/05 14:43:06;;;;;;;17.85;2.38;;;;;;;14.48;54.30;100758.38;4983076;28;20023;-96
2022/02/05 14:45:32;;;;;;;17.92;2.95;;;;;;;14.62;54.09;100757.31;4986357;28;20026;-96
2022/02/05 14:47:58;;;;;;;15.38;2.92;;;;;;;13.98;55.43;100734.06;4981163;28;20037;-94
2022/02/05 14:50:23;;;;;;;10.68;2.15;;;;;;;14.08;56.02;100745.63;4979810;28;20054;-96
2022/02/05 14:52:48;;;;;;;12.88;3.00;;;;;;;14.11;56.40;100737.47;4980057;28;20038;-95
2022/02/05 14:55:14;;;;;;;10.55;2.45;;;;;;;14.13;57.41;100754.03;4980352;28;20026;-95
2022/02/05 14:57:39;;;;;;;11.82;2.05;;;;;;;13.76;59.07;100741.00;4983217;28;20023;-96
2022/02/05 15:00:06;;;;;;;15.48;2.95;;;;;;;13.88;59.42;100724.25;4980679;28;20481;-95
2022/02/05 15:02:31;;;;;;;12.50;2.35;;;;;;;13.66;61.70;100725.06;4977867;28;20027;-96
2022/02/05 15:04:57;;;;;;;17.15;2.90;;;;;;;13.65;61.65;100717.25;4977464;28;20409;-96
2022/02/05 15:07:23;;;;;;;14.63;2.63;;;;;;;13.80;61.57;100718.72;4977707;28;20034;-96
2022/02/05 15:09:49;;;;;;;15.48;2.20;;;;;;;13.67;61.71;100707.41;4983194;28;20039;-95
2022/02/05 15:12:14;;;;;;;11.48;2.63;;;;;;;13.56;61.82;100688.91;4998996;28;20027;-96
2022/02/05 15:14:40;;;;;;;13.63;2.22;;;;;;;13.61;61.41;100703.44;4999817;28;20129;-96
2022/02/05 15:17:05;;;;;;;12.43;2.72;;;;;;;13.67;61.02;100692.41;5003352;28;20377;-96
2022/02/05 15:19:31;;;;;;;22.48;2.80;;;;;;;13.74;60.51;100687.50;5000044;28;20117;-96
2022/02/05 15:21:57;;;;;;;12.98;3.10;;;;;;;13.84;60.45;100687.63;4981278;28;20488;-95
2022/02/05 15:24:22;;;;;;;9.52;2.47;;;;;;;13.76;60.38;100697.94;4978922;28;20023;-95
2022/02/05 15:26:48;;;;;;;15.57;2.38;;;;;;;13.86;59.85;100689.22;4977418;28;20077;-96
2022/02/05 15:29:13;;;;;;;15.88;2.50;;;;;;;13.67;59.69;100689.78;4976790;28;20031;-96
2022/02/05 15:31:41;;;;;;;11.65;2.70;;;;;;;13.89;59.23;100688.97;4996220;28;20034;-96
2022/02/05 15:34:07;;;;;;;14.25;2.58;;;;;;;13.81;59.39;100690.53;4998621;28;20400;-96
2022/02/05 15:36:48;;;;;;;14.38;2.40;;;;;;;14.03;58.90;100673.84;4998904;28;20486;-96
2022/02/05 15:44:42;;;;;;;15.77;3.00;;;;;;;14.01;57.48;100686.34;4964607;28;20030;-96
2022/02/05 15:47:08;;;;;;;17.80;2.90;;;;;;;13.82;58.17;100690.41;4959152;28;20061;-96
2022/02/05 15:49:34;;;;;;;11.65;2.17;;;;;;;13.86;58.14;100678.66;4976379;28;20030;-96
2022/02/05 15:52:00;;;;;;;17.75;2.72;;;;;;;13.79;57.86;100682.72;4960325;29;20032;-96
2022/02/05 15:54:29;;;;;;;16.65;4.03;;;;;;;13.82;58.05;100677.22;4958540;29;20019;-96
2022/02/05 15:57:05;;;;;;;17.80;3.38;;;;;;;13.79;58.06;100680.06;4960742;28;20117;-96
2022/02/05 16:02:14;;;;;;;23.75;3.30;;;;;;;13.50;58.15;100692.84;4960147;28;20505;-96
2022/02/05 16:04:40;;;;;;;15.75;2.60;;;;;;;13.54;58.41;100672.34;4979989;28;20023;-96
2022/02/05 16:07:06;;;;;;;12.43;2.15;;;;;;;13.76;57.21;100667.09;4981701;28;20544;-95
2022/02/05 16:09:32;;;;;;;16.05;2.88;;;;;;;13.71;57.39;100666.63;4992204;28;20038;-95
2022/02/05 16:11:58;;;;;;;17.23;3.58;;;;;;;13.74;57.45;100662.91;5017655;28;20040;-96
2022/02/05 16:14:24;;;;;;;11.60;2.80;;;;;;;13.48;58.26;100658.66;5012722;28;20464;-95
2022/02/05 16:16:50;;;;;;;15.55;2.80;;;;;;;13.53;57.89;100647.78;5018064;28;20015;-94
2022/02/05 16:19:15;;;;;;;15.23;3.10;;;;;;;13.43;58.12;100668.75;5005582;28;20054;-95
2022/02/05 16:21:40;;;;;;;12.30;3.05;;;;;;;13.25;57.88;100641.06;5108689;22;20038;-94
2022/02/05 16:24:07;;;;;;;16.65;3.35;;;;;;;13.05;58.55;100638.16;5151150;23;21051;-96
2022/02/05 16:26:34;;;;;;;20.75;3.30;;;;;;;13.06;58.15;100646.91;5009618;28;20125;-94
2022/02/05 16:29:00;;;;;;;12.70;2.85;;;;;;;13.18;57.64;100616.16;5057300;22;20041;-96
2022/02/05 16:31:25;;;;;;;11.52;2.17;;;;;;;13.23;57.51;100627.16;5019998;28;20034;-96
2022/02/05 16:33:53;;;;;;;16.85;2.92;;;;;;;13.14;57.79;100631.34;5139271;23;20411;-94
2022/02/05 16:36:26;;;;;;;15.77;3.15;;;;;;;13.24;58.21;100628.88;4999771;28;20678;-96
2022/02/05 16:38:56;;;;;;;16.48;2.90;;;;;;;13.04;58.49;100611.91;4995967;28;20026;-96
2022/02/05 16:41:23;;;;;;;16.25;2.80;;;;;;;13.09;57.94;100623.81;4996609;28;20110;-95
2022/02/05 16:43:49;;;;;;;19.10;3.05;;;;;;;13.20;58.37;100630.06;4995257;28;20571;-96
2022/02/05 16:46:20;;;;;;;16.65;3.13;;;;;;;13.12;57.66;100624.53;4996551;28;20037;-95
2022/02/05 16:48:45;;;;;;;18.37;3.10;;;;;;;13.26;57.42;100617.22;4995162;28;20030;-96
2022/02/05 16:51:14;;;;;;;17.98;2.78;;;;;;;13.00;58.03;100613.94;4994357;28;20541;-95
2022/02/05 16:53:40;;;;;;;17.10;2.72;;;;;;;13.12;57.77;100624.53;4994591;28;20037;-96
2022/02/05 16:56:05;;;;;;;16.15;2.85;;;;;;;12.91;58.28;100617.25;4994802;28;20540;-96
2022/02/05 16:58:32;;;;;;;22.10;3.85;;;;;;;13.36;57.35;100625.31;4994902;28;20014;-95
2022/02/05 17:00:57;;;;;;;17.85;2.88;;;;;;;12.99;57.97;100629.84;4995346;28;20088;-95
2022/02/05 17:03:23;;;;;;;17.23;3.25;;;;;;;12.90;58.48;100620.84;4995546;28;20057;-95
2022/02/05 17:05:50;;;;;;;18.95;3.50;;;;;;;12.93;58.07;100611.88;4994408;28;20022;-95
2022/02/05 17:08:15;;;;;;;20.50;2.80;;;;;;;13.31;57.36;100611.66;4995760;28;20171;-95
2022/02/05 17:10:43;;;;;;;18.17;3.30;;;;;;;13.10;57.83;100607.00;4996819;28;20468;-95
2022/02/05 17:13:09;;;;;;;15.10;2.63;;;;;;;13.39;57.29;100611.06;4996517;28;20384;-96
2022/02/05 17:15:35;;;;;;;19.10;3.97;;;;;;;13.17;57.57;100607.41;4999507;28;20086;-96
2022/02/05 17:18:20;;;;;;;16.70;2.70;;;;;;;13.34;56.94;100598.22;5002763;28;20022;-96
2022/02/05 17:20:58;;;;;;;15.65;2.90;;;;;;;13.40;57.41;100592.47;5003612;28;20030;-96
2022/02/05 17:23:31;;;;;;;17.23;3.55;;;;;;;13.34;57.13;100603.50;4998714;28;20026;-96
2022/02/05 17:25:59;;;;;;;14.55;3.35;;;;;;;13.31;57.49;100606.38;4996077;28;20053;-96
2022/02/05 17:28:26;;;;;;;19.50;2.88;;;;;;;12.96;58.57;100595.84;4996405;28;20097;-95
2022/02/05 17:30:53;;;;;;;14.20;2.92;;;;;;;13.35;57.80;100578.81;5000050;28;20029;-96
2022/02/05 17:33:18;;;;;;;26.60;3.47;;;;;;;13.21;58.25;100565.81;4997725;28;20034;-96
2022/02/05 17:35:45;;;;;;;16.92;2.75;;;;;;;13.18;58.01;100552.88;5006139;28;20033;-96
2022/02/05 17:38:18;;;;;;;18.13;3.05;;;;;;;13.20;58.44;100570.25;4997365;28;20022;-96
2022/02/05 17:40:44;;;;;;;19.33;3.05;;;;;;;13.17;58.21;100582.81;4998122;28;20047;-96
2022/02/05 17:43:11;;;;;;;19.85;3.25;;;;;;;13.08;58.57;100560.63;4999011;28;20392;-96
2022/02/05 17:45:38;;;;;;;14.60;3.92;;;;;;;13.06;58.34;100566.03;5000851;28;20027;-96
2022/02/05 17:48:05;;;;;;;17.02;3.92;;;;;;;13.28;57.94;100565.22;5003047;28;20057;-96
2022/02/05 17:50:32;;;;;;;19.15;3.63;;;;;;;13.35;57.67;100559.50;5005861;28;20549;-96
2022/02/05 17:52:58;;;;;;;16.75;2.55;;;;;;;13.29;58.45;100588.03;5004215;28;20022;-96
2022/02/05 17:55:24;;;;;;;16.45;3.53;;;;;;;13.33;57.59;100554.38;4987735;28;20034;-96
2022/02/05 17:57:56;;;;;;;15.70;2.75;;;;;;;13.30;58.09;100554.59;5007946;28;20038;-96
2022/02/05 18:00:26;;;;;;;17.60;2.78;;;;;;;13.33;58.11;100575.47;5006205;28;20026;-96
2022/02/05 18:02:52;;;;;;;14.10;3.10;;;;;;;13.30;58.53;100562.50;5008546;28;20034;-96
2022/02/05 18:05:26;;;;;;;15.00;2.85;;;;;;;13.24;58.39;100545.31;5002575;28;20023;-96
2022/02/05 18:08:13;;;;;;;15.80;2.95;;;;;;;13.42;58.02;100535.19;5008390;28;20083;-96
2022/02/05 18:10:50;;;;;;;23.77;3.47;;;;;;;13.35;58.23;100567.41;4998903;28;20109;-96
2022/02/05 18:16:04;;;;;;;16.35;2.60;;;;;;;13.00;58.84;100541.94;4997501;28;20611;-96
2022/02/05 18:18:30;;;;;;;15.82;2.83;;;;;;;13.34;58.29;100537.56;4984151;28;20030;-96
2022/02/05 18:20:57;;;;;;;16.35;2.50;;;;;;;13.31;58.08;100540.47;5003014;28;20027;-96
2022/02/05 18:23:33;;;;;;;17.75;3.90;;;;;;;13.01;58.77;100522.50;4988137;28;20027;-96
2022/02/05 18:25:58;;;;;;;12.38;2.55;;;;;;;13.38;58.15;100531.09;4992271;28;20065;-96
2022/02/05 18:28:48;;;;;;;17.10;2.63;;;;;;;13.17;58.62;100517.75;5000306;28;20018;-96
2022/02/05 18:31:13;;;;;;;19.35;3.30;;;;;;;13.14;58.90;100518.00;4995863;28;20160;-96
2022/02/05 18:33:39;;;;;;;14.45;4.00;;;;;;;13.12;58.94;100526.97;5001792;28;20030;-96
2022/02/05 18:36:27;;;;;;;13.25;4.30;;;;;;;13.23;58.99;100532.25;5010813;28;20034;-96
2022/02/05 18:39:22;;;;;;;12.55;3.35;;;;;;;13.42;58.46;100524.63;4994297;28;20022;-96
2022/02/05 18:42:15;;;;;;;18.23;3.20;;;;;;;13.59;57.91;100519.84;5011516;28;20057;-96
2022/02/05 18:44:42;;;;;;;15.68;2.92;;;;;;;13.17;58.99;100544.13;5018058;28;20010;-96